createdAt,value
2023-05-23T00:01:07.238Z,19.13
2023-05-23T00:03:55.842Z,19.14
2023-05-23T00:06:44.889Z,19.13
2023-05-23T00:09:30.596Z,19.06
2023-05-23T00:12:15.914Z,19.04
2023-05-23T00:15:01.342Z,19.01
2023-05-23T00:17:47.604Z,18.98
2023-05-23T00:20:35.140Z,18.96
2023-05-23T00:27:22.144Z,18.87
2023-05-23T00:31:00.171Z,18.82
2023-05-23T00:33:48.939Z,18.76
2023-05-23T00:36:37.785Z,18.76
2023-05-23T00:39:23.463Z,18.73
2023-05-23T00:42:23.559Z,18.69
2023-05-23T00:45:49.447Z,18.69
2023-05-23T00:48:36.366Z,18.64
2023-05-23T00:55:16.446Z,18.50
2023-05-23T00:58:02.460Z,18.45
2023-05-23T01:00:50.736Z,18.41
2023-05-23T01:03:36.751Z,18.38
2023-05-23T01:06:22.107Z,18.36
2023-05-23T01:09:09.583Z,18.34
2023-05-23T01:12:07.290Z,18.35
2023-05-23T01:15:06.496Z,18.36
2023-05-23T01:17:59.294Z,18.36
2023-05-23T01:20:50.650Z,18.38
2023-05-23T01:24:00.173Z,18.40
2023-05-23T01:27:01.952Z,18.40
2023-05-23T01:29:53.174Z,18.42
2023-05-23T01:32:40.127Z,18.42
2023-05-23T01:35:29.357Z,18.41
2023-05-23T01:38:14.512Z,18.42
2023-05-23T01:40:59.929Z,18.42
2023-05-23T01:43:45.081Z,18.43
2023-05-23T01:46:31.745Z,18.44
2023-05-23T01:49:18.460Z,18.41
2023-05-23T01:52:05.620Z,18.39
2023-05-23T01:54:52.941Z,18.38
2023-05-23T01:57:39.214Z,18.33
2023-05-23T02:00:25.023Z,18.32
2023-05-23T02:03:11.812Z,18.31
2023-05-23T02:05:57.577Z,18.28
2023-05-23T02:08:43.191Z,18.29
2023-05-23T02:11:28.535Z,18.29
2023-05-23T02:14:13.754Z,18.32
2023-05-23T02:17:00.459Z,18.34
2023-05-23T02:19:45.982Z,18.34
2023-05-23T02:22:31.524Z,18.34
2023-05-23T02:25:16.733Z,18.35
2023-05-23T02:28:02.298Z,18.34
2023-05-23T02:30:47.723Z,18.33
2023-05-23T02:33:33.139Z,18.33
2023-05-23T02:36:18.505Z,18.28
2023-05-23T02:39:04.005Z,18.25
2023-05-23T02:41:49.453Z,18.24
2023-05-23T02:44:35.116Z,18.22
2023-05-23T02:47:20.755Z,18.22
2023-05-23T02:50:07.780Z,18.23
2023-05-23T02:52:53.851Z,18.24
2023-05-23T02:55:40.371Z,18.23
2023-05-23T02:58:25.850Z,18.27
2023-05-23T03:01:11.977Z,18.28
2023-05-23T03:03:57.657Z,18.32
2023-05-23T03:06:44.606Z,18.35
2023-05-23T03:09:32.173Z,18.39
2023-05-23T03:12:17.736Z,18.39
2023-05-23T03:15:03.295Z,18.39
2023-05-23T03:17:49.390Z,18.37
2023-05-23T03:20:35.692Z,18.32
2023-05-23T03:23:21.024Z,18.27
2023-05-23T03:26:06.816Z,18.25
2023-05-23T03:28:52.190Z,18.21
2023-05-23T03:31:38.328Z,18.18
2023-05-23T03:34:23.914Z,18.21
2023-05-23T03:37:09.672Z,18.21
2023-05-23T03:39:54.872Z,18.13
2023-05-23T03:42:40.269Z,18.03
2023-05-23T03:45:27.928Z,17.96
2023-05-23T03:48:13.263Z,17.95
2023-05-23T03:50:59.889Z,17.94
2023-05-23T03:53:45.286Z,17.93
2023-05-23T03:56:30.566Z,17.95
2023-05-23T03:59:15.826Z,17.95
2023-05-23T04:02:01.348Z,17.95
2023-05-23T04:04:47.010Z,17.91
2023-05-23T04:07:34.829Z,17.92
2023-05-23T04:10:20.040Z,17.90
2023-05-23T04:13:06.614Z,17.90
2023-05-23T04:15:52.703Z,17.92
2023-05-23T04:18:39.190Z,17.96
2023-05-23T04:21:25.548Z,18.02
2023-05-23T04:24:23.644Z,18.11
2023-05-23T04:27:09.042Z,18.18
2023-05-23T04:29:56.496Z,18.23
2023-05-23T04:32:41.927Z,18.15
2023-05-23T04:35:28.403Z,18.09
2023-05-23T04:38:14.240Z,18.06
2023-05-23T04:40:59.887Z,18.07
2023-05-23T04:44:18.018Z,18.07
2023-05-23T04:47:28.074Z,18.09
2023-05-23T04:50:24.652Z,18.10
2023-05-23T04:53:09.996Z,18.11
2023-05-23T04:55:56.509Z,18.15
2023-05-23T04:58:42.423Z,18.19
2023-05-23T05:01:29.777Z,18.19
2023-05-23T05:04:16.110Z,18.17
2023-05-23T05:07:04.174Z,18.15
2023-05-23T05:09:49.510Z,18.15
2023-05-23T05:12:36.039Z,18.15
2023-05-23T05:15:21.366Z,18.11
2023-05-23T05:18:12.196Z,18.11
2023-05-23T05:20:58.624Z,18.13
2023-05-23T05:23:44.118Z,18.13
2023-05-23T05:26:29.723Z,18.13
2023-05-23T05:29:16.309Z,18.13
2023-05-23T05:32:03.375Z,18.13
2023-05-23T05:34:49.435Z,18.13
2023-05-23T05:37:36.351Z,18.14
2023-05-23T05:40:22.233Z,18.12
2023-05-23T05:43:07.408Z,18.15
2023-05-23T05:45:53.271Z,18.17
2023-05-23T05:48:38.629Z,18.19
2023-05-23T05:51:26.762Z,18.21
2023-05-23T05:54:13.136Z,18.21
2023-05-23T05:56:58.519Z,18.23
2023-05-23T05:59:44.277Z,18.27
2023-05-23T06:02:31.486Z,18.25
2023-05-23T06:05:16.855Z,18.23
2023-05-23T06:08:04.042Z,18.20
2023-05-23T06:10:49.438Z,18.10
2023-05-23T06:13:35.241Z,17.98
2023-05-23T06:16:20.969Z,17.86
2023-05-23T06:19:08.423Z,17.88
2023-05-23T06:21:55.634Z,17.91
2023-05-23T06:24:41.756Z,17.99
2023-05-23T06:27:27.111Z,18.06
2023-05-23T06:30:13.404Z,18.11
2023-05-23T06:32:58.713Z,18.22
2023-05-23T06:35:44.270Z,18.37
2023-05-23T06:38:33.489Z,18.60
2023-05-23T06:41:18.798Z,18.81
2023-05-23T06:44:03.934Z,19.03
2023-05-23T06:46:49.959Z,19.30
2023-05-23T06:49:35.309Z,19.61
2023-05-23T06:52:20.722Z,19.91
2023-05-23T06:55:06.877Z,20.02
2023-05-23T06:57:52.305Z,20.11
2023-05-23T07:00:39.727Z,20.16
2023-05-23T07:03:41.767Z,19.87
2023-05-23T07:06:27.590Z,20.06
2023-05-23T07:09:13.088Z,20.17
2023-05-23T07:11:59.439Z,20.28
2023-05-23T07:14:44.874Z,20.25
2023-05-23T07:17:30.280Z,20.29
2023-05-23T07:20:16.902Z,20.40
2023-05-23T07:23:03.503Z,20.49
2023-05-23T07:26:01.238Z,20.61
2023-05-23T07:28:55.090Z,20.67
2023-05-23T07:31:41.262Z,20.51
2023-05-23T07:34:28.282Z,20.60
2023-05-23T07:37:16.361Z,20.74
2023-05-23T07:40:07.727Z,20.91
2023-05-23T07:42:54.157Z,20.99
2023-05-23T07:45:39.661Z,21.10
2023-05-23T07:48:27.073Z,21.00
2023-05-23T07:51:12.597Z,20.74
2023-05-23T07:53:58.281Z,20.63
2023-05-23T07:56:43.945Z,20.52
2023-05-23T07:59:30.246Z,20.27
2023-05-23T08:02:16.479Z,20.15
2023-05-23T08:05:02.746Z,20.14
2023-05-23T08:07:48.448Z,20.20
2023-05-23T08:10:33.749Z,20.33
2023-05-23T08:13:28.418Z,20.43
2023-05-23T08:16:35.298Z,20.36
2023-05-23T08:19:21.194Z,20.78
2023-05-23T08:22:07.692Z,21.17
2023-05-23T08:24:52.685Z,20.93
2023-05-23T08:27:38.683Z,20.99
2023-05-23T08:30:36.737Z,21.45
2023-05-23T08:33:22.647Z,21.93
2023-05-23T08:36:11.563Z,21.96
2023-05-23T08:38:57.137Z,22.18
2023-05-23T08:41:52.699Z,22.39
2023-05-23T08:44:38.024Z,22.37
2023-05-23T08:47:23.898Z,22.47
2023-05-23T08:50:16.083Z,22.33
2023-05-23T08:53:03.227Z,22.28
2023-05-23T08:55:51.524Z,22.03
2023-05-23T08:58:41.851Z,21.83
2023-05-23T09:01:29.387Z,22.10
2023-05-23T09:04:17.635Z,22.57
2023-05-23T09:07:16.892Z,22.30
2023-05-23T09:10:07.074Z,22.40
2023-05-23T09:12:52.865Z,22.23
2023-05-23T09:15:38.638Z,22.33
2023-05-23T09:18:33.185Z,21.91
2023-05-23T09:21:18.899Z,21.64
2023-05-23T09:24:34.193Z,21.51
2023-05-23T09:27:19.885Z,21.44
2023-05-23T09:30:12.721Z,21.50
2023-05-23T09:33:03.916Z,21.56
2023-05-23T09:35:51.430Z,21.86
2023-05-23T09:38:46.209Z,22.12
2023-05-23T09:41:35.501Z,22.31
2023-05-23T09:44:23.066Z,22.28
2023-05-23T09:47:08.327Z,22.22
2023-05-23T09:49:53.564Z,22.16
2023-05-23T09:52:39.921Z,22.31
2023-05-23T09:55:25.332Z,22.47
2023-05-23T09:58:11.285Z,22.47
2023-05-23T10:00:58.075Z,22.22
2023-05-23T10:03:55.947Z,22.38
2023-05-23T10:06:48.882Z,22.52
2023-05-23T10:09:38.018Z,22.58
2023-05-23T10:12:32.760Z,22.47
2023-05-23T10:15:18.988Z,22.40
2023-05-23T10:18:14.958Z,22.40
2023-05-23T10:21:09.494Z,22.14
2023-05-23T10:23:55.934Z,21.99
2023-05-23T10:26:41.376Z,21.99
2023-05-23T10:29:27.174Z,22.10
2023-05-23T10:32:15.003Z,22.15
2023-05-23T10:35:23.904Z,22.30
2023-05-23T10:38:24.431Z,22.46
2023-05-23T10:41:16.532Z,22.61
2023-05-23T10:44:13.003Z,22.54
2023-05-23T10:47:03.835Z,22.48
2023-05-23T10:49:54.413Z,22.66
2023-05-23T10:52:41.668Z,22.73
2023-05-23T10:55:31.124Z,22.44
2023-05-23T10:58:20.468Z,22.39
2023-05-23T11:01:08.756Z,21.91
2023-05-23T11:03:56.015Z,21.75
2023-05-23T11:06:44.447Z,21.78
2023-05-23T11:09:30.022Z,22.07
2023-05-23T11:12:15.637Z,22.30
2023-05-23T11:15:01.222Z,22.36
2023-05-23T11:17:54.976Z,22.29
2023-05-23T11:20:41.507Z,22.09
2023-05-23T11:23:41.797Z,21.82
2023-05-23T11:26:32.016Z,21.63
2023-05-23T11:29:17.651Z,21.12
2023-05-23T11:32:15.982Z,20.80
2023-05-23T11:35:03.788Z,20.77
2023-05-23T11:37:49.451Z,20.66
2023-05-23T11:40:39.902Z,20.61
2023-05-23T11:43:26.022Z,20.74
2023-05-23T11:46:11.597Z,20.80
2023-05-23T11:48:57.150Z,20.84
2023-05-23T11:51:42.390Z,20.74
2023-05-23T11:54:28.287Z,20.87
2023-05-23T11:57:14.365Z,20.93
2023-05-23T11:59:59.739Z,21.08
2023-05-23T12:02:46.243Z,21.19
2023-05-23T12:05:31.689Z,21.07
2023-05-23T12:08:16.969Z,20.83
2023-05-23T12:11:02.979Z,20.98
2023-05-23T12:13:48.975Z,21.17
2023-05-23T12:16:35.123Z,21.19
2023-05-23T12:19:20.922Z,21.00
2023-05-23T12:22:07.896Z,20.83
2023-05-23T12:24:55.605Z,20.74
2023-05-23T12:27:44.088Z,20.67
2023-05-23T12:30:29.386Z,20.69
2023-05-23T12:33:15.027Z,20.63
2023-05-23T12:36:00.658Z,20.52
2023-05-23T12:38:45.856Z,20.60
2023-05-23T12:41:32.721Z,20.67
2023-05-23T12:44:18.313Z,20.63
2023-05-23T12:47:04.339Z,20.63
2023-05-23T12:49:49.940Z,20.68
2023-05-23T12:52:36.696Z,20.60
2023-05-23T12:55:22.169Z,20.65
2023-05-23T12:58:07.489Z,20.22
2023-05-23T13:00:52.952Z,20.05
2023-05-23T13:03:38.593Z,20.20
2023-05-23T13:06:23.894Z,20.23
2023-05-23T13:09:09.286Z,20.05
2023-05-23T13:11:55.049Z,20.10
2023-05-23T13:14:40.432Z,19.71
2023-05-23T13:17:25.836Z,19.44
2023-05-23T13:20:11.458Z,19.31
2023-05-23T13:23:00.874Z,19.35
2023-05-23T13:25:46.956Z,19.47
2023-05-23T13:28:33.410Z,19.44
2023-05-23T13:31:18.988Z,19.30
2023-05-23T13:34:04.259Z,19.12
2023-05-23T13:36:49.356Z,18.91
2023-05-23T13:39:34.892Z,18.69
2023-05-23T13:42:20.403Z,18.45
2023-05-23T13:45:06.530Z,18.26
2023-05-23T13:47:52.359Z,18.23
2023-05-23T13:50:37.822Z,18.19
2023-05-23T13:53:23.362Z,18.26
2023-05-23T13:56:09.450Z,18.24
2023-05-23T13:58:54.864Z,18.39
2023-05-23T14:01:40.850Z,18.48
2023-05-23T14:04:26.239Z,18.55
2023-05-23T14:07:11.388Z,18.67
2023-05-23T14:09:57.525Z,18.73
2023-05-23T14:12:43.083Z,18.71
2023-05-23T14:15:28.551Z,18.70
2023-05-23T14:18:13.828Z,18.58
2023-05-23T14:20:59.030Z,18.40
2023-05-23T14:23:44.396Z,18.31
2023-05-23T14:26:30.187Z,18.32
2023-05-23T14:29:16.063Z,18.40
2023-05-23T14:32:02.762Z,18.37
2023-05-23T14:34:48.194Z,18.25
2023-05-23T14:37:33.600Z,18.27
2023-05-23T14:40:19.111Z,18.26
2023-05-23T14:43:05.068Z,18.32
2023-05-23T14:45:50.332Z,18.28
2023-05-23T14:48:35.681Z,18.10
2023-05-23T14:51:34.726Z,17.92
2023-05-23T14:54:26.939Z,17.86
2023-05-23T14:57:12.258Z,17.85
2023-05-23T14:59:57.402Z,17.79
2023-05-23T15:02:42.682Z,17.66
2023-05-23T15:05:27.895Z,17.54
2023-05-23T15:08:13.602Z,17.40
2023-05-23T15:10:59.422Z,17.19
2023-05-23T15:13:45.075Z,17.07
2023-05-23T15:16:33.413Z,16.89
2023-05-23T15:19:19.268Z,16.84
2023-05-23T15:22:05.201Z,16.82
2023-05-23T15:24:50.464Z,16.83
2023-05-23T15:27:36.153Z,16.73
2023-05-23T15:30:24.317Z,16.78
2023-05-23T15:33:09.732Z,16.61
2023-05-23T15:35:55.215Z,16.51
2023-05-23T15:38:40.462Z,16.54
2023-05-23T15:41:26.557Z,16.48
2023-05-23T15:44:14.709Z,16.59
2023-05-23T15:47:00.235Z,16.69
2023-05-23T15:49:45.585Z,16.73
2023-05-23T15:52:30.664Z,16.75
2023-05-23T15:55:15.919Z,16.69
2023-05-23T15:58:01.046Z,16.44
2023-05-23T16:00:46.443Z,16.15
2023-05-23T16:03:32.011Z,16.00
2023-05-23T16:06:17.337Z,15.59
2023-05-23T16:09:03.149Z,15.19
2023-05-23T16:11:48.765Z,14.86
2023-05-23T16:14:33.920Z,14.60
2023-05-23T16:17:19.416Z,14.53
2023-05-23T16:20:05.195Z,14.45
2023-05-23T16:22:51.152Z,14.29
2023-05-23T16:25:36.211Z,14.16
2023-05-23T16:28:21.779Z,14.06
2023-05-23T16:31:07.277Z,13.98
2023-05-23T16:33:52.686Z,13.93
2023-05-23T16:36:38.037Z,13.92
2023-05-23T16:39:23.299Z,13.97
2023-05-23T16:42:08.700Z,14.08
2023-05-23T16:44:54.002Z,14.11
2023-05-23T16:47:39.138Z,14.21
2023-05-23T16:50:24.500Z,14.25
2023-05-23T16:53:09.665Z,14.16
2023-05-23T16:55:54.909Z,14.12
2023-05-23T16:58:41.687Z,14.10
2023-05-23T17:01:29.539Z,14.07
2023-05-23T17:04:15.058Z,14.01
2023-05-23T17:07:00.428Z,13.93
2023-05-23T17:09:46.017Z,13.82
2023-05-23T17:12:31.760Z,13.80
2023-05-23T17:15:16.849Z,13.82
2023-05-23T17:18:02.487Z,13.80
2023-05-23T17:20:48.085Z,13.79
2023-05-23T17:23:33.573Z,13.66
2023-05-23T17:26:19.805Z,13.64
2023-05-23T17:29:05.345Z,13.67
2023-05-23T17:31:50.935Z,13.63
2023-05-23T17:34:36.424Z,13.63
2023-05-23T17:37:21.796Z,13.62
2023-05-23T17:40:07.610Z,13.63
2023-05-23T17:42:53.002Z,13.62
2023-05-23T17:45:38.997Z,13.63
2023-05-23T17:48:38.289Z,13.62
2023-05-23T17:51:29.827Z,13.68
2023-05-23T17:54:15.147Z,13.62
2023-05-23T17:57:00.415Z,13.62
2023-05-23T17:59:46.026Z,13.60
2023-05-23T18:02:31.436Z,13.56
2023-05-23T18:05:19.685Z,13.49
2023-05-23T18:08:05.410Z,13.33
2023-05-23T18:10:51.187Z,13.29
2023-05-23T18:13:36.378Z,13.25
2023-05-23T18:16:22.182Z,13.07
2023-05-23T18:19:07.625Z,12.94
2023-05-23T18:21:53.636Z,12.86
2023-05-23T18:24:40.426Z,12.80
2023-05-23T18:27:25.994Z,12.86
2023-05-23T18:30:11.980Z,12.98
2023-05-23T18:32:58.806Z,12.96
2023-05-23T18:35:44.464Z,12.94
2023-05-23T18:38:30.885Z,12.95
2023-05-23T18:41:16.448Z,13.00
2023-05-23T18:44:02.077Z,13.00
2023-05-23T18:46:47.254Z,13.03
2023-05-23T18:49:32.665Z,13.09
2023-05-23T18:52:18.037Z,13.18
2023-05-23T18:55:03.738Z,13.27
2023-05-23T18:57:48.972Z,13.36
2023-05-23T19:00:34.355Z,13.43
2023-05-23T19:03:20.077Z,13.49
2023-05-23T19:06:07.029Z,13.47
2023-05-23T19:08:52.384Z,13.47
2023-05-23T19:11:37.928Z,13.52
2023-05-23T19:14:23.599Z,13.57
2023-05-23T19:17:09.409Z,13.59
2023-05-23T19:19:55.099Z,13.67
2023-05-23T19:22:51.037Z,13.73
2023-05-23T19:25:37.803Z,13.78
2023-05-23T19:28:22.897Z,13.80
2023-05-23T19:31:08.099Z,13.79
2023-05-23T19:33:53.251Z,13.76
2023-05-23T19:36:38.487Z,13.74
2023-05-23T19:39:23.707Z,13.76
2023-05-23T19:42:08.971Z,13.77
2023-05-23T19:44:54.650Z,13.79
2023-05-23T19:47:40.755Z,13.80
2023-05-23T19:50:26.014Z,13.85
2023-05-23T19:53:11.473Z,13.85
2023-05-23T19:55:57.553Z,13.81
2023-05-23T19:58:43.211Z,13.82
2023-05-23T20:01:30.662Z,13.83
2023-05-23T20:04:16.444Z,13.85
2023-05-23T20:07:01.668Z,13.82
2023-05-23T20:09:46.869Z,13.86
2023-05-23T20:12:32.221Z,13.87
2023-05-23T20:15:24.591Z,13.86
2023-05-23T20:18:17.004Z,13.79
2023-05-23T20:21:05.047Z,13.74
2023-05-23T20:23:51.060Z,13.74
2023-05-23T20:26:36.231Z,13.69
2023-05-23T20:29:21.509Z,13.66
2023-05-23T20:32:06.840Z,13.64
2023-05-23T20:34:52.722Z,13.59
2023-05-23T20:37:39.100Z,13.59
2023-05-23T20:40:25.660Z,13.53
2023-05-23T20:43:11.197Z,13.43
2023-05-23T20:45:57.243Z,13.41
2023-05-23T20:48:42.586Z,13.40
2023-05-23T20:51:27.811Z,13.44
2023-05-23T20:54:13.043Z,13.33
2023-05-23T20:56:58.856Z,13.29
2023-05-23T20:59:44.269Z,13.21
2023-05-23T21:02:29.491Z,13.16
2023-05-23T21:05:14.682Z,13.13
2023-05-23T21:07:59.765Z,13.08
2023-05-23T21:10:49.108Z,13.06
2023-05-23T21:13:37.708Z,13.02
2023-05-23T21:16:25.037Z,12.95
2023-05-23T21:19:10.717Z,12.93
2023-05-23T21:21:56.190Z,12.88
2023-05-23T21:24:41.821Z,12.86
2023-05-23T21:27:29.035Z,12.79
2023-05-23T21:30:15.288Z,12.78
2023-05-23T21:33:00.556Z,12.67
2023-05-23T21:35:45.947Z,12.61
2023-05-23T21:38:31.254Z,12.60
2023-05-23T21:41:16.602Z,12.62
2023-05-23T21:44:01.760Z,12.61
2023-05-23T21:46:47.427Z,12.62
2023-05-23T21:49:35.091Z,12.57
2023-05-23T21:52:20.850Z,12.53
2023-05-23T21:55:06.421Z,12.55
2023-05-23T21:57:51.376Z,12.57
2023-05-23T22:00:36.971Z,12.54
2023-05-23T22:03:22.193Z,12.51
2023-05-23T22:06:07.601Z,12.48
2023-05-23T22:08:53.230Z,12.52
2023-05-23T22:11:38.877Z,12.45
2023-05-23T22:14:24.402Z,12.38
2023-05-23T22:17:09.945Z,12.31
2023-05-23T22:19:58.000Z,12.26
2023-05-23T22:22:43.197Z,12.29
2023-05-23T22:25:32.691Z,12.19
2023-05-23T22:28:18.033Z,12.19
2023-05-23T22:31:03.410Z,12.12
2023-05-23T22:33:48.480Z,12.03
2023-05-23T22:36:34.080Z,12.00
2023-05-23T22:39:19.361Z,11.95
2023-05-23T22:42:04.939Z,12.02
2023-05-23T22:44:50.492Z,12.02
2023-05-23T22:47:35.933Z,12.01
2023-05-23T22:50:22.471Z,12.02
2023-05-23T22:53:11.552Z,11.91
2023-05-23T22:55:57.395Z,11.88
2023-05-23T22:58:42.874Z,11.86
2023-05-23T23:01:28.411Z,11.87
2023-05-23T23:04:13.629Z,11.85
2023-05-23T23:07:02.625Z,11.81
2023-05-23T23:09:49.039Z,11.78
2023-05-23T23:12:36.915Z,11.74
2023-05-23T23:15:24.577Z,11.69
2023-05-23T23:18:10.239Z,11.65
2023-05-23T23:20:55.371Z,11.63
2023-05-23T23:23:42.394Z,11.58
2023-05-23T23:26:27.685Z,11.55
2023-05-23T23:29:13.272Z,11.45
2023-05-23T23:31:59.715Z,11.45
2023-05-23T23:34:44.871Z,11.51
2023-05-23T23:37:30.278Z,11.45
2023-05-23T23:40:15.516Z,11.43
2023-05-23T23:43:00.634Z,11.44
2023-05-23T23:45:45.672Z,11.44
2023-05-23T23:48:30.977Z,11.45
2023-05-23T23:51:16.397Z,11.44
2023-05-23T23:54:01.608Z,11.45
2023-05-23T23:56:46.901Z,11.45
2023-05-23T23:59:31.973Z,11.46
